sensor_id;sensor_type;location;lat;lon;timestamp;temperature;humidity
4687;DHT22;2357;47.316;-1.348;2022-09-13T00:00:43;24.70;99.90
4687;DHT22;2357;47.316;-1.348;2022-09-13T00:03:11;24.80;99.90
4687;DHT22;2357;47.316;-1.348;2022-09-13T00:05:37;24.80;99.90
4687;DHT22;2357;47.316;-1.348;2022-09-13T00:08:04;24.80;99.90
4687;DHT22;2357;47.316;-1.348;2022-09-13T00:10:33;24.60;99.90
4687;DHT22;2357;47.316;-1.348;2022-09-13T00:12:59;24.40;99.90
4687;DHT22;2357;47.316;-1.348;2022-09-13T00:15:25;24.40;99.90
4687;DHT22;2357;47.316;-1.348;2022-09-13T00:17:51;24.30;99.90
4687;DHT22;2357;47.316;-1.348;2022-09-13T00:20:16;24.40;99.90
4687;DHT22;2357;47.316;-1.348;2022-09-13T00:22:42;24.50;99.90
4687;DHT22;2357;47.316;-1.348;2022-09-13T00:25:08;24.60;99.90
4687;DHT22;2357;47.316;-1.348;2022-09-13T00:27:34;24.70;99.90
4687;DHT22;2357;47.316;-1.348;2022-09-13T00:30:00;24.60;99.90
4687;DHT22;2357;47.316;-1.348;2022-09-13T00:32:26;24.60;99.90
4687;DHT22;2357;47.316;-1.348;2022-09-13T00:34:51;24.60;99.90
4687;DHT22;2357;47.316;-1.348;2022-09-13T00:37:17;24.50;99.90
4687;DHT22;2357;47.316;-1.348;2022-09-13T00:39:43;24.50;99.90
4687;DHT22;2357;47.316;-1.348;2022-09-13T00:42:12;24.50;99.90
4687;DHT22;2357;47.316;-1.348;2022-09-13T00:44:59;24.50;99.90
4687;DHT22;2357;47.316;-1.348;2022-09-13T00:47:51;24.40;99.90
4687;DHT22;2357;47.316;-1.348;2022-09-13T00:53:08;24.40;99.90
4687;DHT22;2357;47.316;-1.348;2022-09-13T00:55:40;24.30;99.90
4687;DHT22;2357;47.316;-1.348;2022-09-13T00:58:15;24.30;99.90
4687;DHT22;2357;47.316;-1.348;2022-09-13T01:00:43;24.30;99.90
4687;DHT22;2357;47.316;-1.348;2022-09-13T01:03:11;24.40;99.90
4687;DHT22;2357;47.316;-1.348;2022-09-13T01:05:48;24.30;99.90
4687;DHT22;2357;47.316;-1.348;2022-09-13T01:08:15;24.40;99.90
4687;DHT22;2357;47.316;-1.348;2022-09-13T01:10:48;24.40;99.90
4687;DHT22;2357;47.316;-1.348;2022-09-13T01:13:27;24.40;99.90
4687;DHT22;2357;47.316;-1.348;2022-09-13T01:15:53;24.50;99.90
4687;DHT22;2357;47.316;-1.348;2022-09-13T01:18:19;24.50;99.90
4687;DHT22;2357;47.316;-1.348;2022-09-13T01:26:53;24.50;99.90
4687;DHT22;2357;47.316;-1.348;2022-09-13T01:35:07;24.20;99.90
4687;DHT22;2357;47.316;-1.348;2022-09-13T01:56:59;24.00;99.90
4687;DHT22;2357;47.316;-1.348;2022-09-13T01:59:52;24.00;99.90
4687;DHT22;2357;47.316;-1.348;2022-09-13T02:03:23;24.10;99.90
4687;DHT22;2357;47.316;-1.348;2022-09-13T02:05:30;24.20;99.90
4687;DHT22;2357;47.316;-1.348;2022-09-13T02:08:09;24.20;99.90
4687;DHT22;2357;47.316;-1.348;2022-09-13T02:10:41;24.10;99.90
4687;DHT22;2357;47.316;-1.348;2022-09-13T02:13:16;24.10;99.90
4687;DHT22;2357;47.316;-1.348;2022-09-13T02:15:47;24.00;99.90
4687;DHT22;2357;47.316;-1.348;2022-09-13T02:18:36;24.00;99.90
4687;DHT22;2357;47.316;-1.348;2022-09-13T02:21:31;24.00;99.90
4687;DHT22;2357;47.316;-1.348;2022-09-13T02:24:06;24.10;99.90
4687;DHT22;2357;47.316;-1.348;2022-09-13T02:26:34;24.00;99.90
4687;DHT22;2357;47.316;-1.348;2022-09-13T02:29:04;23.90;99.90
4687;DHT22;2357;47.316;-1.348;2022-09-13T02:31:41;24.00;99.90
4687;DHT22;2357;47.316;-1.348;2022-09-13T02:34:14;24.10;99.90
4687;DHT22;2357;47.316;-1.348;2022-09-13T02:36:42;24.00;99.90
4687;DHT22;2357;47.316;-1.348;2022-09-13T02:39:14;24.00;99.90
4687;DHT22;2357;47.316;-1.348;2022-09-13T02:42:07;24.00;99.90
4687;DHT22;2357;47.316;-1.348;2022-09-13T02:44:51;24.00;99.90
4687;DHT22;2357;47.316;-1.348;2022-09-13T03:01:08;23.80;99.90
4687;DHT22;2357;47.316;-1.348;2022-09-13T03:03:34;23.80;99.90
4687;DHT22;2357;47.316;-1.348;2022-09-13T03:05:59;23.80;99.90
4687;DHT22;2357;47.316;-1.348;2022-09-13T03:08:26;23.80;99.90
4687;DHT22;2357;47.316;-1.348;2022-09-13T03:13:39;23.70;99.90
4687;DHT22;2357;47.316;-1.348;2022-09-13T03:16:29;23.70;99.90
4687;DHT22;2357;47.316;-1.348;2022-09-13T03:22:11;23.50;99.90
4687;DHT22;2357;47.316;-1.348;2022-09-13T03:24:46;23.20;99.90
4687;DHT22;2357;47.316;-1.348;2022-09-13T03:30:08;23.20;99.90
4687;DHT22;2357;47.316;-1.348;2022-09-13T03:33:00;23.20;99.90
4687;DHT22;2357;47.316;-1.348;2022-09-13T03:35:42;23.10;99.90
4687;DHT22;2357;47.316;-1.348;2022-09-13T03:41:09;23.30;99.90
4687;DHT22;2357;47.316;-1.348;2022-09-13T03:43:49;23.40;99.90
4687;DHT22;2357;47.316;-1.348;2022-09-13T03:48:45;23.50;99.90
4687;DHT22;2357;47.316;-1.348;2022-09-13T03:51:11;23.60;99.90
4687;DHT22;2357;47.316;-1.348;2022-09-13T03:53:51;23.60;99.90
4687;DHT22;2357;47.316;-1.348;2022-09-13T03:56:19;23.60;99.90
4687;DHT22;2357;47.316;-1.348;2022-09-13T03:58:46;23.60;99.90
4687;DHT22;2357;47.316;-1.348;2022-09-13T04:01:12;23.60;99.90
4687;DHT22;2357;47.316;-1.348;2022-09-13T04:03:38;23.60;99.90
4687;DHT22;2357;47.316;-1.348;2022-09-13T04:06:05;23.60;99.90
4687;DHT22;2357;47.316;-1.348;2022-09-13T04:08:32;23.60;99.90
4687;DHT22;2357;47.316;-1.348;2022-09-13T04:10:57;23.60;99.90
4687;DHT22;2357;47.316;-1.348;2022-09-13T04:13:24;23.60;99.90
4687;DHT22;2357;47.316;-1.348;2022-09-13T04:15:49;23.60;99.90
4687;DHT22;2357;47.316;-1.348;2022-09-13T04:18:15;23.60;99.90
4687;DHT22;2357;47.316;-1.348;2022-09-13T04:20:42;23.50;99.90
4687;DHT22;2357;47.316;-1.348;2022-09-13T04:23:07;23.50;99.90
4687;DHT22;2357;47.316;-1.348;2022-09-13T04:25:33;23.50;99.90
4687;DHT22;2357;47.316;-1.348;2022-09-13T04:27:59;23.50;99.90
4687;DHT22;2357;47.316;-1.348;2022-09-13T04:30:26;23.50;99.90
4687;DHT22;2357;47.316;-1.348;2022-09-13T04:32:52;23.50;99.90
4687;DHT22;2357;47.316;-1.348;2022-09-13T04:35:20;23.50;99.90
4687;DHT22;2357;47.316;-1.348;2022-09-13T04:37:46;23.50;99.90
4687;DHT22;2357;47.316;-1.348;2022-09-13T04:40:12;23.50;99.90
4687;DHT22;2357;47.316;-1.348;2022-09-13T04:42:39;23.50;99.90
4687;DHT22;2357;47.316;-1.348;2022-09-13T04:45:05;23.50;99.90
4687;DHT22;2357;47.316;-1.348;2022-09-13T04:47:31;23.50;99.90
4687;DHT22;2357;47.316;-1.348;2022-09-13T04:49:57;23.50;99.90
4687;DHT22;2357;47.316;-1.348;2022-09-13T04:52:22;23.50;99.90
4687;DHT22;2357;47.316;-1.348;2022-09-13T04:54:48;23.50;99.90
4687;DHT22;2357;47.316;-1.348;2022-09-13T04:57:14;23.50;99.90
4687;DHT22;2357;47.316;-1.348;2022-09-13T04:59:41;23.40;99.90
4687;DHT22;2357;47.316;-1.348;2022-09-13T05:02:07;23.40;99.90
4687;DHT22;2357;47.316;-1.348;2022-09-13T05:04:33;23.40;99.90
4687;DHT22;2357;47.316;-1.348;2022-09-13T05:06:59;23.30;99.90
4687;DHT22;2357;47.316;-1.348;2022-09-13T05:09:24;23.30;99.90
4687;DHT22;2357;47.316;-1.348;2022-09-13T05:11:50;23.30;99.90
4687;DHT22;2357;47.316;-1.348;2022-09-13T05:14:16;23.30;99.90
4687;DHT22;2357;47.316;-1.348;2022-09-13T05:16:41;23.30;99.90
4687;DHT22;2357;47.316;-1.348;2022-09-13T05:19:08;23.30;99.90
4687;DHT22;2357;47.316;-1.348;2022-09-13T05:21:34;23.20;99.90
4687;DHT22;2357;47.316;-1.348;2022-09-13T05:24:00;23.20;99.90
4687;DHT22;2357;47.316;-1.348;2022-09-13T05:26:28;23.20;99.90
4687;DHT22;2357;47.316;-1.348;2022-09-13T05:28:56;23.20;99.90
4687;DHT22;2357;47.316;-1.348;2022-09-13T05:31:31;23.20;99.90
4687;DHT22;2357;47.316;-1.348;2022-09-13T05:33:59;23.10;99.90
4687;DHT22;2357;47.316;-1.348;2022-09-13T05:36:26;23.20;99.90
4687;DHT22;2357;47.316;-1.348;2022-09-13T05:38:55;23.20;99.90
4687;DHT22;2357;47.316;-1.348;2022-09-13T05:41:21;23.20;99.90
4687;DHT22;2357;47.316;-1.348;2022-09-13T05:43:47;23.20;99.90
4687;DHT22;2357;47.316;-1.348;2022-09-13T05:46:15;23.20;99.90
4687;DHT22;2357;47.316;-1.348;2022-09-13T05:48:42;23.20;99.90
4687;DHT22;2357;47.316;-1.348;2022-09-13T05:51:09;23.10;99.90
4687;DHT22;2357;47.316;-1.348;2022-09-13T05:53:39;23.10;99.90
4687;DHT22;2357;47.316;-1.348;2022-09-13T05:56:16;23.10;99.90
4687;DHT22;2357;47.316;-1.348;2022-09-13T05:58:44;23.20;99.90
4687;DHT22;2357;47.316;-1.348;2022-09-13T06:01:11;23.20;99.90
4687;DHT22;2357;47.316;-1.348;2022-09-13T06:03:37;23.20;99.90
4687;DHT22;2357;47.316;-1.348;2022-09-13T06:06:04;23.20;99.90
4687;DHT22;2357;47.316;-1.348;2022-09-13T06:08:31;23.10;99.90
4687;DHT22;2357;47.316;-1.348;2022-09-13T06:11:07;23.10;99.90
4687;DHT22;2357;47.316;-1.348;2022-09-13T06:13:34;23.00;99.90
4687;DHT22;2357;47.316;-1.348;2022-09-13T06:16:01;23.00;99.90
4687;DHT22;2357;47.316;-1.348;2022-09-13T06:18:28;22.90;99.90
4687;DHT22;2357;47.316;-1.348;2022-09-13T06:23:30;23.00;99.90
4687;DHT22;2357;47.316;-1.348;2022-09-13T06:26:15;23.10;99.90
4687;DHT22;2357;47.316;-1.348;2022-09-13T06:28:41;23.10;99.90
4687;DHT22;2357;47.316;-1.348;2022-09-13T06:31:12;23.20;99.90
4687;DHT22;2357;47.316;-1.348;2022-09-13T06:33:40;23.20;99.90
4687;DHT22;2357;47.316;-1.348;2022-09-13T06:36:13;23.30;99.90
4687;DHT22;2357;47.316;-1.348;2022-09-13T06:38:39;23.40;99.90
4687;DHT22;2357;47.316;-1.348;2022-09-13T06:41:14;23.40;99.90
4687;DHT22;2357;47.316;-1.348;2022-09-13T06:43:43;23.40;99.90
4687;DHT22;2357;47.316;-1.348;2022-09-13T06:46:11;23.40;99.90
4687;DHT22;2357;47.316;-1.348;2022-09-13T06:48:40;23.40;99.90
4687;DHT22;2357;47.316;-1.348;2022-09-13T06:51:11;23.30;99.90
4687;DHT22;2357;47.316;-1.348;2022-09-13T06:53:38;23.30;99.90
4687;DHT22;2357;47.316;-1.348;2022-09-13T06:56:05;23.20;99.90
4687;DHT22;2357;47.316;-1.348;2022-09-13T06:58:32;23.30;99.90
4687;DHT22;2357;47.316;-1.348;2022-09-13T07:01:21;23.40;99.90
4687;DHT22;2357;47.316;-1.348;2022-09-13T07:03:48;23.40;99.90
4687;DHT22;2357;47.316;-1.348;2022-09-13T07:06:16;23.40;99.90
4687;DHT22;2357;47.316;-1.348;2022-09-13T07:08:43;23.40;99.90
4687;DHT22;2357;47.316;-1.348;2022-09-13T07:11:11;23.40;99.90
4687;DHT22;2357;47.316;-1.348;2022-09-13T07:13:37;23.40;99.90
4687;DHT22;2357;47.316;-1.348;2022-09-13T07:16:05;23.30;99.90
4687;DHT22;2357;47.316;-1.348;2022-09-13T07:18:31;23.40;99.90
4687;DHT22;2357;47.316;-1.348;2022-09-13T07:21:02;23.50;99.90
4687;DHT22;2357;47.316;-1.348;2022-09-13T07:23:32;23.50;99.90
4687;DHT22;2357;47.316;-1.348;2022-09-13T07:25:59;23.60;99.90
4687;DHT22;2357;47.316;-1.348;2022-09-13T07:28:41;23.60;99.90
4687;DHT22;2357;47.316;-1.348;2022-09-13T07:31:16;23.60;99.90
4687;DHT22;2357;47.316;-1.348;2022-09-13T07:33:43;23.60;99.90
4687;DHT22;2357;47.316;-1.348;2022-09-13T07:36:10;23.60;99.90
4687;DHT22;2357;47.316;-1.348;2022-09-13T07:38:39;23.50;99.90
4687;DHT22;2357;47.316;-1.348;2022-09-13T07:41:10;23.60;99.90
4687;DHT22;2357;47.316;-1.348;2022-09-13T07:43:36;23.70;99.90
4687;DHT22;2357;47.316;-1.348;2022-09-13T07:46:05;23.70;99.90
4687;DHT22;2357;47.316;-1.348;2022-09-13T07:48:33;23.70;99.90
4687;DHT22;2357;47.316;-1.348;2022-09-13T07:53:34;23.70;99.90
4687;DHT22;2357;47.316;-1.348;2022-09-13T07:58:31;23.90;99.90
4687;DHT22;2357;47.316;-1.348;2022-09-13T08:01:18;24.00;99.90
4687;DHT22;2357;47.316;-1.348;2022-09-13T08:03:50;24.00;99.90
4687;DHT22;2357;47.316;-1.348;2022-09-13T08:06:16;24.00;99.90
4687;DHT22;2357;47.316;-1.348;2022-09-13T08:08:42;24.10;99.90
4687;DHT22;2357;47.316;-1.348;2022-09-13T08:11:14;24.10;99.90
4687;DHT22;2357;47.316;-1.348;2022-09-13T08:13:40;24.10;99.90
4687;DHT22;2357;47.316;-1.348;2022-09-13T08:16:06;24.10;99.90
4687;DHT22;2357;47.316;-1.348;2022-09-13T08:18:32;24.20;99.90
4687;DHT22;2357;47.316;-1.348;2022-09-13T08:20:59;24.20;99.90
4687;DHT22;2357;47.316;-1.348;2022-09-13T08:23:25;24.20;99.90
4687;DHT22;2357;47.316;-1.348;2022-09-13T08:25:52;24.30;99.90
4687;DHT22;2357;47.316;-1.348;2022-09-13T08:28:19;24.40;99.90
4687;DHT22;2357;47.316;-1.348;2022-09-13T08:30:48;24.40;99.90
4687;DHT22;2357;47.316;-1.348;2022-09-13T08:33:14;24.40;99.90
4687;DHT22;2357;47.316;-1.348;2022-09-13T08:35:40;24.40;99.90
4687;DHT22;2357;47.316;-1.348;2022-09-13T08:38:13;24.40;99.90
4687;DHT22;2357;47.316;-1.348;2022-09-13T08:40:41;24.40;99.90
4687;DHT22;2357;47.316;-1.348;2022-09-13T08:43:24;24.40;99.90
4687;DHT22;2357;47.316;-1.348;2022-09-13T08:48:44;24.50;99.90
4687;DHT22;2357;47.316;-1.348;2022-09-13T08:51:36;24.60;99.90
4687;DHT22;2357;47.316;-1.348;2022-09-13T08:54:04;24.60;99.90
4687;DHT22;2357;47.316;-1.348;2022-09-13T09:05:16;24.70;99.90
4687;DHT22;2357;47.316;-1.348;2022-09-13T09:07:50;24.80;99.90
4687;DHT22;2357;47.316;-1.348;2022-09-13T09:10:30;24.80;99.90
4687;DHT22;2357;47.316;-1.348;2022-09-13T09:12:58;24.80;99.90
4687;DHT22;2357;47.316;-1.348;2022-09-13T09:15:32;24.80;99.90
4687;DHT22;2357;47.316;-1.348;2022-09-13T09:20:46;24.70;99.90
4687;DHT22;2357;47.316;-1.348;2022-09-13T09:25:43;24.60;99.90
4687;DHT22;2357;47.316;-1.348;2022-09-13T09:28:13;24.60;99.90
4687;DHT22;2357;47.316;-1.348;2022-09-13T09:38:42;24.60;99.90
4687;DHT22;2357;47.316;-1.348;2022-09-13T09:41:38;24.70;99.90
4687;DHT22;2357;47.316;-1.348;2022-09-13T09:44:19;24.80;99.90
4687;DHT22;2357;47.316;-1.348;2022-09-13T09:46:51;24.80;99.90
4687;DHT22;2357;47.316;-1.348;2022-09-13T09:49:36;24.80;99.90
4687;DHT22;2357;47.316;-1.348;2022-09-13T09:52:34;24.80;99.90
4687;DHT22;2357;47.316;-1.348;2022-09-13T09:55:16;24.90;99.90
4687;DHT22;2357;47.316;-1.348;2022-09-13T09:58:07;25.00;99.90
4687;DHT22;2357;47.316;-1.348;2022-09-13T10:00:56;25.20;99.90
4687;DHT22;2357;47.316;-1.348;2022-09-13T10:03:28;25.40;99.90
4687;DHT22;2357;47.316;-1.348;2022-09-13T10:06:13;25.60;99.90
4687;DHT22;2357;47.316;-1.348;2022-09-13T10:08:41;25.90;99.90
4687;DHT22;2357;47.316;-1.348;2022-09-13T10:11:07;26.10;99.90
4687;DHT22;2357;47.316;-1.348;2022-09-13T10:13:33;26.20;99.90
4687;DHT22;2357;47.316;-1.348;2022-09-13T10:16:21;26.30;99.90
4687;DHT22;2357;47.316;-1.348;2022-09-13T10:18:47;26.30;99.90
4687;DHT22;2357;47.316;-1.348;2022-09-13T10:23:42;26.40;99.90
4687;DHT22;2357;47.316;-1.348;2022-09-13T10:26:14;26.50;99.90
4687;DHT22;2357;47.316;-1.348;2022-09-13T10:28:43;26.60;99.90
4687;DHT22;2357;47.316;-1.348;2022-09-13T10:31:12;26.50;99.90
4687;DHT22;2357;47.316;-1.348;2022-09-13T10:36:20;26.60;99.90
4687;DHT22;2357;47.316;-1.348;2022-09-13T10:38:58;26.70;99.90
4687;DHT22;2357;47.316;-1.348;2022-09-13T10:41:27;26.80;99.90
4687;DHT22;2357;47.316;-1.348;2022-09-13T10:43:58;26.90;99.90
4687;DHT22;2357;47.316;-1.348;2022-09-13T10:46:25;27.10;99.90
4687;DHT22;2357;47.316;-1.348;2022-09-13T10:48:51;26.90;99.90
4687;DHT22;2357;47.316;-1.348;2022-09-13T10:51:35;27.00;99.90
4687;DHT22;2357;47.316;-1.348;2022-09-13T10:54:11;27.20;99.90
4687;DHT22;2357;47.316;-1.348;2022-09-13T10:56:40;27.40;99.90
4687;DHT22;2357;47.316;-1.348;2022-09-13T11:11:09;27.20;99.90
4687;DHT22;2357;47.316;-1.348;2022-09-13T11:19:06;28.30;99.90
4687;DHT22;2357;47.316;-1.348;2022-09-13T11:24:38;29.00;99.90
4687;DHT22;2357;47.316;-1.348;2022-09-13T11:27:16;29.10;99.90
4687;DHT22;2357;47.316;-1.348;2022-09-13T11:32:55;29.10;99.90
4687;DHT22;2357;47.316;-1.348;2022-09-13T11:41:15;29.50;99.90
4687;DHT22;2357;47.316;-1.348;2022-09-13T11:49:36;29.60;99.90
4687;DHT22;2357;47.316;-1.348;2022-09-13T11:54:54;29.70;99.90
4687;DHT22;2357;47.316;-1.348;2022-09-13T11:57:34;30.00;99.90
4687;DHT22;2357;47.316;-1.348;2022-09-13T12:00:08;29.90;99.90
4687;DHT22;2357;47.316;-1.348;2022-09-13T12:02:46;29.90;99.90
4687;DHT22;2357;47.316;-1.348;2022-09-13T12:05:22;29.90;99.90
4687;DHT22;2357;47.316;-1.348;2022-09-13T12:10:47;30.30;99.90
4687;DHT22;2357;47.316;-1.348;2022-09-13T12:13:20;30.70;99.90
4687;DHT22;2357;47.316;-1.348;2022-09-13T12:15:50;30.80;99.90
4687;DHT22;2357;47.316;-1.348;2022-09-13T12:18:45;30.70;99.90
4687;DHT22;2357;47.316;-1.348;2022-09-13T12:21:12;30.70;99.90
4687;DHT22;2357;47.316;-1.348;2022-09-13T12:24:21;30.70;99.90
4687;DHT22;2357;47.316;-1.348;2022-09-13T12:27:09;30.60;99.90
4687;DHT22;2357;47.316;-1.348;2022-09-13T12:29:46;30.20;99.90
4687;DHT22;2357;47.316;-1.348;2022-09-13T12:32:15;30.70;99.90
4687;DHT22;2357;47.316;-1.348;2022-09-13T12:43:04;31.00;99.90
4687;DHT22;2357;47.316;-1.348;2022-09-13T12:54:06;30.60;99.90
4687;DHT22;2357;47.316;-1.348;2022-09-13T13:01:45;31.10;99.90
4687;DHT22;2357;47.316;-1.348;2022-09-13T13:07:06;30.90;99.90
4687;DHT22;2357;47.316;-1.348;2022-09-13T13:09:42;30.50;99.90
4687;DHT22;2357;47.316;-1.348;2022-09-13T13:12:31;30.30;99.90
4687;DHT22;2357;47.316;-1.348;2022-09-13T13:14:56;30.10;99.90
4687;DHT22;2357;47.316;-1.348;2022-09-13T13:29:19;30.00;99.90
4687;DHT22;2357;47.316;-1.348;2022-09-13T13:34:48;30.30;99.90
4687;DHT22;2357;47.316;-1.348;2022-09-13T13:39:47;30.30;99.90
4687;DHT22;2357;47.316;-1.348;2022-09-13T13:42:27;30.30;99.90
4687;DHT22;2357;47.316;-1.348;2022-09-13T13:59:55;29.50;99.90
4687;DHT22;2357;47.316;-1.348;2022-09-13T14:02:29;29.50;99.90
4687;DHT22;2357;47.316;-1.348;2022-09-13T14:05:22;29.30;99.90
4687;DHT22;2357;47.316;-1.348;2022-09-13T14:13:41;29.10;99.90
4687;DHT22;2357;47.316;-1.348;2022-09-13T14:19:18;29.10;99.90
4687;DHT22;2357;47.316;-1.348;2022-09-13T14:24:29;29.00;99.90
4687;DHT22;2357;47.316;-1.348;2022-09-13T14:26:59;28.90;99.90
4687;DHT22;2357;47.316;-1.348;2022-09-13T14:29:26;28.90;99.90
4687;DHT22;2357;47.316;-1.348;2022-09-13T14:31:56;28.90;99.90
4687;DHT22;2357;47.316;-1.348;2022-09-13T14:34:34;28.80;99.90
4687;DHT22;2357;47.316;-1.348;2022-09-13T14:37:05;28.80;99.90
4687;DHT22;2357;47.316;-1.348;2022-09-13T14:39:31;28.80;99.90
4687;DHT22;2357;47.316;-1.348;2022-09-13T14:42:10;28.70;99.90
4687;DHT22;2357;47.316;-1.348;2022-09-13T14:44:36;28.60;99.90
4687;DHT22;2357;47.316;-1.348;2022-09-13T14:47:04;28.50;99.90
4687;DHT22;2357;47.316;-1.348;2022-09-13T14:49:39;28.50;99.90
4687;DHT22;2357;47.316;-1.348;2022-09-13T14:52:09;28.30;99.90
4687;DHT22;2357;47.316;-1.348;2022-09-13T14:54:59;28.30;99.90
4687;DHT22;2357;47.316;-1.348;2022-09-13T14:57:33;28.20;99.90
4687;DHT22;2357;47.316;-1.348;2022-09-13T15:00:05;28.10;99.90
4687;DHT22;2357;47.316;-1.348;2022-09-13T15:02:37;28.00;99.90
4687;DHT22;2357;47.316;-1.348;2022-09-13T15:05:06;27.90;99.90
4687;DHT22;2357;47.316;-1.348;2022-09-13T15:07:37;27.80;99.90
4687;DHT22;2357;47.316;-1.348;2022-09-13T15:10:32;27.80;99.90
4687;DHT22;2357;47.316;-1.348;2022-09-13T15:18:23;27.60;99.90
4687;DHT22;2357;47.316;-1.348;2022-09-13T15:23:30;27.50;99.90
4687;DHT22;2357;47.316;-1.348;2022-09-13T15:26:25;27.60;99.90
4687;DHT22;2357;47.316;-1.348;2022-09-13T15:28:52;27.50;99.90
4687;DHT22;2357;47.316;-1.348;2022-09-13T15:31:23;27.50;99.90
4687;DHT22;2357;47.316;-1.348;2022-09-13T15:36:46;27.50;99.90
4687;DHT22;2357;47.316;-1.348;2022-09-13T15:39:19;27.40;99.90
4687;DHT22;2357;47.316;-1.348;2022-09-13T15:41:56;27.50;99.90
4687;DHT22;2357;47.316;-1.348;2022-09-13T15:44:24;27.50;99.90
4687;DHT22;2357;47.316;-1.348;2022-09-13T15:46:54;27.50;99.90
4687;DHT22;2357;47.316;-1.348;2022-09-13T15:49:22;27.60;99.90
4687;DHT22;2357;47.316;-1.348;2022-09-13T15:51:54;27.90;99.90
4687;DHT22;2357;47.316;-1.348;2022-09-13T15:54:19;28.60;99.90
4687;DHT22;2357;47.316;-1.348;2022-09-13T15:56:48;28.90;99.90
4687;DHT22;2357;47.316;-1.348;2022-09-13T15:59:18;30.40;99.90
4687;DHT22;2357;47.316;-1.348;2022-09-13T16:01:45;30.80;99.90
4687;DHT22;2357;47.316;-1.348;2022-09-13T16:04:12;30.10;99.90
4687;DHT22;2357;47.316;-1.348;2022-09-13T16:06:38;29.20;99.90
4687;DHT22;2357;47.316;-1.348;2022-09-13T16:09:24;29.00;99.90
4687;DHT22;2357;47.316;-1.348;2022-09-13T16:11:51;28.90;99.90
4687;DHT22;2357;47.316;-1.348;2022-09-13T16:14:17;28.80;99.90
4687;DHT22;2357;47.316;-1.348;2022-09-13T16:16:44;28.80;99.90
4687;DHT22;2357;47.316;-1.348;2022-09-13T16:19:18;28.90;99.90
4687;DHT22;2357;47.316;-1.348;2022-09-13T16:21:44;28.80;99.90
4687;DHT22;2357;47.316;-1.348;2022-09-13T16:24:10;28.80;99.90
4687;DHT22;2357;47.316;-1.348;2022-09-13T16:26:36;28.70;99.90
4687;DHT22;2357;47.316;-1.348;2022-09-13T16:29:02;28.70;99.90
4687;DHT22;2357;47.316;-1.348;2022-09-13T16:31:28;28.70;99.90
4687;DHT22;2357;47.316;-1.348;2022-09-13T16:33:54;28.90;99.90
4687;DHT22;2357;47.316;-1.348;2022-09-13T16:36:20;29.60;99.90
4687;DHT22;2357;47.316;-1.348;2022-09-13T16:38:46;29.30;99.90
4687;DHT22;2357;47.316;-1.348;2022-09-13T16:41:11;28.90;99.90
4687;DHT22;2357;47.316;-1.348;2022-09-13T16:43:37;28.50;99.90
4687;DHT22;2357;47.316;-1.348;2022-09-13T16:46:12;28.30;99.90
4687;DHT22;2357;47.316;-1.348;2022-09-13T16:48:39;28.10;99.90
4687;DHT22;2357;47.316;-1.348;2022-09-13T16:51:08;28.00;99.90
4687;DHT22;2357;47.316;-1.348;2022-09-13T16:53:36;27.90;99.90
4687;DHT22;2357;47.316;-1.348;2022-09-13T16:56:06;27.80;99.90
4687;DHT22;2357;47.316;-1.348;2022-09-13T16:58:35;27.70;99.90
4687;DHT22;2357;47.316;-1.348;2022-09-13T17:01:06;27.70;99.90
4687;DHT22;2357;47.316;-1.348;2022-09-13T17:03:32;27.60;99.90
4687;DHT22;2357;47.316;-1.348;2022-09-13T17:06:00;27.60;99.90
4687;DHT22;2357;47.316;-1.348;2022-09-13T17:08:26;27.50;99.90
4687;DHT22;2357;47.316;-1.348;2022-09-13T17:10:52;27.50;99.90
4687;DHT22;2357;47.316;-1.348;2022-09-13T17:13:18;27.50;99.90
4687;DHT22;2357;47.316;-1.348;2022-09-13T17:15:43;27.50;99.90
4687;DHT22;2357;47.316;-1.348;2022-09-13T17:18:09;27.40;99.90
4687;DHT22;2357;47.316;-1.348;2022-09-13T17:20:35;27.30;99.90
4687;DHT22;2357;47.316;-1.348;2022-09-13T17:23:00;27.20;99.90
4687;DHT22;2357;47.316;-1.348;2022-09-13T17:25:26;27.20;99.90
4687;DHT22;2357;47.316;-1.348;2022-09-13T17:27:52;27.10;99.90
4687;DHT22;2357;47.316;-1.348;2022-09-13T17:30:18;27.10;99.90
4687;DHT22;2357;47.316;-1.348;2022-09-13T17:32:43;27.00;99.90
4687;DHT22;2357;47.316;-1.348;2022-09-13T17:35:09;27.00;99.90
4687;DHT22;2357;47.316;-1.348;2022-09-13T17:37:36;26.90;99.90
4687;DHT22;2357;47.316;-1.348;2022-09-13T17:40:02;26.80;99.90
4687;DHT22;2357;47.316;-1.348;2022-09-13T17:42:28;26.70;99.90
4687;DHT22;2357;47.316;-1.348;2022-09-13T17:44:53;26.70;99.90
4687;DHT22;2357;47.316;-1.348;2022-09-13T17:47:19;26.60;99.90
4687;DHT22;2357;47.316;-1.348;2022-09-13T17:49:44;26.50;99.90
4687;DHT22;2357;47.316;-1.348;2022-09-13T17:52:12;26.50;99.90
4687;DHT22;2357;47.316;-1.348;2022-09-13T17:54:38;26.40;99.90
4687;DHT22;2357;47.316;-1.348;2022-09-13T17:57:03;26.40;99.90
4687;DHT22;2357;47.316;-1.348;2022-09-13T17:59:29;26.30;99.90
4687;DHT22;2357;47.316;-1.348;2022-09-13T18:01:57;26.40;99.90
4687;DHT22;2357;47.316;-1.348;2022-09-13T18:04:25;26.20;99.90
4687;DHT22;2357;47.316;-1.348;2022-09-13T18:06:51;26.20;99.90
4687;DHT22;2357;47.316;-1.348;2022-09-13T18:09:17;26.20;99.90
4687;DHT22;2357;47.316;-1.348;2022-09-13T18:11:43;26.10;99.90
4687;DHT22;2357;47.316;-1.348;2022-09-13T18:14:13;26.00;99.90
4687;DHT22;2357;47.316;-1.348;2022-09-13T18:16:40;25.90;99.90
4687;DHT22;2357;47.316;-1.348;2022-09-13T18:19:06;25.90;99.90
4687;DHT22;2357;47.316;-1.348;2022-09-13T18:21:32;25.90;99.90
4687;DHT22;2357;47.316;-1.348;2022-09-13T18:23:58;25.80;99.90
4687;DHT22;2357;47.316;-1.348;2022-09-13T18:26:26;25.80;99.90
4687;DHT22;2357;47.316;-1.348;2022-09-13T18:28:58;25.80;99.90
4687;DHT22;2357;47.316;-1.348;2022-09-13T18:31:26;25.80;99.90
4687;DHT22;2357;47.316;-1.348;2022-09-13T18:33:54;25.70;99.90
4687;DHT22;2357;47.316;-1.348;2022-09-13T18:36:22;25.60;99.90
4687;DHT22;2357;47.316;-1.348;2022-09-13T18:38:48;25.60;99.90
4687;DHT22;2357;47.316;-1.348;2022-09-13T18:41:40;25.50;99.90
4687;DHT22;2357;47.316;-1.348;2022-09-13T18:44:08;25.40;99.90
4687;DHT22;2357;47.316;-1.348;2022-09-13T18:46:34;25.30;99.90
4687;DHT22;2357;47.316;-1.348;2022-09-13T18:49:01;25.40;99.90
4687;DHT22;2357;47.316;-1.348;2022-09-13T18:51:39;25.40;99.90
4687;DHT22;2357;47.316;-1.348;2022-09-13T18:54:07;25.40;99.90
4687;DHT22;2357;47.316;-1.348;2022-09-13T18:56:33;25.30;99.90
4687;DHT22;2357;47.316;-1.348;2022-09-13T18:59:02;25.30;99.90
4687;DHT22;2357;47.316;-1.348;2022-09-13T19:01:30;25.30;99.90
4687;DHT22;2357;47.316;-1.348;2022-09-13T19:04:03;25.20;99.90
4687;DHT22;2357;47.316;-1.348;2022-09-13T19:06:32;25.20;99.90
4687;DHT22;2357;47.316;-1.348;2022-09-13T19:08:58;25.20;99.90
4687;DHT22;2357;47.316;-1.348;2022-09-13T19:11:26;25.20;99.90
4687;DHT22;2357;47.316;-1.348;2022-09-13T19:13:52;25.00;99.90
4687;DHT22;2357;47.316;-1.348;2022-09-13T19:16:19;25.00;99.90
4687;DHT22;2357;47.316;-1.348;2022-09-13T19:18:47;25.00;99.90
4687;DHT22;2357;47.316;-1.348;2022-09-13T19:21:20;25.00;99.90
4687;DHT22;2357;47.316;-1.348;2022-09-13T19:23:47;24.90;99.90
4687;DHT22;2357;47.316;-1.348;2022-09-13T19:28:51;24.90;99.90
4687;DHT22;2357;47.316;-1.348;2022-09-13T19:31:18;24.90;99.90
4687;DHT22;2357;47.316;-1.348;2022-09-13T19:33:45;24.90;99.90
4687;DHT22;2357;47.316;-1.348;2022-09-13T19:36:13;24.90;99.90
4687;DHT22;2357;47.316;-1.348;2022-09-13T19:38:40;24.80;99.90
4687;DHT22;2357;47.316;-1.348;2022-09-13T19:41:10;24.80;99.90
4687;DHT22;2357;47.316;-1.348;2022-09-13T19:43:37;24.70;99.90
4687;DHT22;2357;47.316;-1.348;2022-09-13T19:46:23;24.70;99.90
4687;DHT22;2357;47.316;-1.348;2022-09-13T19:48:52;24.40;99.90